Time;durP1;ratioP1;P1;durP2;ratioP2;P2;SDS_P1;SDS_P2;PMS_P1;PMS_P2;Temp;Humidity;BMP_temperature;BMP_pressure;BME280_temperature;BME280_humidity;BME280_pressure;Samples;Min_cycle;Max_cycle;Signal;HPM_P1;HPM_P2
2022/05/30 00:01:46;;;;;;;5.50;2.83;;;;;;;15.75;55.19;100472.53;1604702;88;21871;-71
2022/05/30 00:04:14;;;;;;;6.40;2.70;;;;;;;15.70;55.54;100474.77;1629756;85;21295;-72
2022/05/30 00:06:42;;;;;;;4.27;2.37;;;;;;;15.66;55.81;100481.84;1618062;86;21838;-71
2022/05/30 00:09:13;;;;;;;3.93;2.27;;;;;;;15.64;56.08;100494.75;1625894;85;21429;-72
2022/05/30 00:11:41;;;;;;;4.87;2.40;;;;;;;15.63;56.36;100490.47;1601945;88;21250;-72
2022/05/30 00:14:10;;;;;;;4.70;2.77;;;;;;;15.65;56.52;100491.50;1624189;86;21374;-71
2022/05/30 00:16:39;;;;;;;4.78;2.87;;;;;;;15.64;56.79;100490.71;1614407;86;21417;-71
2022/05/30 00:19:07;;;;;;;5.90;2.70;;;;;;;15.62;56.88;100480.77;1623113;85;21899;-71
2022/05/30 00:21:37;;;;;;;4.60;2.83;;;;;;;15.62;57.02;100488.84;1604086;88;21417;-71
2022/05/30 00:24:04;;;;;;;4.83;2.80;;;;;;;15.64;57.21;100489.36;1623918;86;21316;-71
2022/05/30 00:26:31;;;;;;;3.83;2.73;;;;;;;15.66;57.32;100493.09;1603597;88;21931;-71
2022/05/30 00:28:58;;;;;;;4.43;2.90;;;;;;;15.65;57.57;100482.88;1615168;86;21226;-71
2022/05/30 00:31:25;;;;;;;4.63;2.77;;;;;;;15.67;57.75;100478.05;1608222;88;21382;-71
2022/05/30 00:33:51;;;;;;;4.83;2.60;;;;;;;15.68;57.84;100471.56;1618600;86;21803;-71
2022/05/30 00:36:19;;;;;;;4.43;2.93;;;;;;;15.70;58.15;100474.77;1612926;86;21349;-70
2022/05/30 00:38:46;;;;;;;4.70;2.80;;;;;;;15.70;58.37;100470.73;1623359;86;21227;-71
2022/05/30 00:41:16;;;;;;;4.77;2.83;;;;;;;15.71;58.70;100466.94;1604723;87;21441;-75
2022/05/30 00:43:46;;;;;;;5.93;3.20;;;;;;;15.71;59.01;100465.59;1625277;86;21800;-71
2022/05/30 00:46:15;;;;;;;5.37;3.10;;;;;;;15.73;59.07;100467.17;1619250;87;22524;-71
2022/05/30 00:48:46;;;;;;;5.63;2.97;;;;;;;15.77;59.17;100462.83;1620998;86;21444;-71
2022/05/30 00:51:17;;;;;;;6.13;3.70;;;;;;;15.79;59.35;100464.66;1589350;88;21355;-71
2022/05/30 00:53:46;;;;;;;6.87;3.58;;;;;;;15.80;59.56;100460.89;1625672;86;21399;-72
2022/05/30 00:56:13;;;;;;;5.77;3.40;;;;;;;15.81;59.77;100454.41;1609042;86;21286;-71
2022/05/30 00:58:48;;;;;;;4.77;3.10;;;;;;;15.82;60.18;100453.30;1601597;87;21284;-72
2022/05/30 01:01:15;;;;;;;5.53;3.20;;;;;;;15.83;60.37;100433.37;1624023;86;21420;-72
2022/05/30 01:06:33;;;;;;;4.67;3.10;;;;;;;15.75;60.97;100434.83;1628239;85;21452;-72
2022/05/30 01:09:10;;;;;;;5.53;3.57;;;;;;;15.67;61.25;100420.16;1627169;86;22069;-72
2022/05/30 01:11:58;;;;;;;4.30;3.00;;;;;;;15.64;61.40;100426.09;1626714;86;21163;-71
2022/05/30 01:14:32;;;;;;;5.33;3.43;;;;;;;15.60;61.65;100422.95;1630160;86;21468;-71
2022/05/30 01:16:59;;;;;;;5.67;3.57;;;;;;;15.50;62.07;100406.41;1603653;87;21302;-72
2022/05/30 01:19:57;;;;;;;4.10;3.20;;;;;;;15.41;62.48;100391.45;1630754;86;21390;-71
2022/05/30 01:22:59;;;;;;;5.33;3.40;;;;;;;15.34;63.08;100372.75;1641033;85;21329;-71
2022/05/30 01:25:39;;;;;;;7.53;4.20;;;;;;;15.22;63.46;100367.25;1626652;86;21254;-71
2022/05/30 01:28:55;;;;;;;5.13;3.67;;;;;;;15.15;63.79;100362.79;1628894;86;21384;-71
2022/05/30 01:31:23;;;;;;;5.03;3.80;;;;;;;15.06;64.34;100365.87;1548663;87;21833;-72
2022/05/30 01:33:51;;;;;;;5.60;3.40;;;;;;;14.96;64.86;100366.03;1609984;87;21324;-71
2022/05/30 01:36:24;;;;;;;5.63;3.50;;;;;;;14.91;65.09;100370.16;1631479;86;21369;-71
2022/05/30 01:38:52;;;;;;;4.90;3.80;;;;;;;14.86;65.45;100371.00;1627069;86;21701;-71
2022/05/30 01:41:20;;;;;;;5.17;3.90;;;;;;;14.82;65.91;100371.33;1607960;88;21837;-71
2022/05/30 01:43:48;;;;;;;5.07;3.77;;;;;;;14.80;66.24;100370.02;1633804;87;21719;-71
2022/05/30 01:46:21;;;;;;;5.00;3.80;;;;;;;14.78;66.74;100364.94;1633484;86;21291;-70
2022/05/30 01:48:50;;;;;;;5.43;4.00;;;;;;;14.80;67.03;100367.33;1630188;86;21378;-72
2022/05/30 01:51:19;;;;;;;6.10;3.87;;;;;;;14.79;67.17;100381.32;1599687;88;21347;-71
2022/05/30 01:53:47;;;;;;;5.13;4.00;;;;;;;14.83;67.27;100388.27;1628222;86;21293;-71
2022/05/30 01:56:32;;;;;;;6.23;3.70;;;;;;;14.83;67.37;100393.09;1632945;86;21997;-71
2022/05/30 01:59:00;;;;;;;5.60;3.80;;;;;;;14.83;67.51;100391.75;1624989;86;21307;-72
2022/05/30 02:01:35;;;;;;;6.37;4.13;;;;;;;14.83;67.64;100381.54;1624811;86;21320;-71
2022/05/30 02:04:02;;;;;;;6.67;4.20;;;;;;;14.81;68.03;100373.78;1624711;86;21193;-71
2022/05/30 02:06:31;;;;;;;5.43;3.77;;;;;;;14.80;68.39;100378.88;1610450;87;21327;-71
2022/05/30 02:08:58;;;;;;;6.13;4.40;;;;;;;14.82;68.63;100383.98;1625602;86;21918;-72
2022/05/30 02:11:27;;;;;;;5.00;4.10;;;;;;;14.85;68.78;100380.16;1613666;87;21666;-72
2022/05/30 02:13:56;;;;;;;5.70;4.10;;;;;;;14.88;69.03;100378.80;1628849;86;21706;-72
2022/05/30 02:19:12;;;;;;;5.67;4.10;;;;;;;14.95;69.28;100375.98;1628158;86;21374;-71
2022/05/30 02:21:41;;;;;;;5.93;4.33;;;;;;;15.00;69.35;100379.97;1612655;88;21252;-71
2022/05/30 02:24:08;;;;;;;6.60;4.00;;;;;;;15.03;69.51;100377.22;1625225;86;21338;-72
2022/05/30 02:26:36;;;;;;;5.77;4.87;;;;;;;15.06;69.76;100371.27;1626796;87;21392;-72
2022/05/30 02:29:04;;;;;;;5.43;4.30;;;;;;;15.06;69.90;100367.23;1626466;86;21748;-72
2022/05/30 02:31:31;;;;;;;6.77;4.83;;;;;;;15.09;70.14;100365.30;1628151;86;21310;-72
2022/05/30 02:36:44;;;;;;;5.87;4.70;;;;;;;15.11;70.20;100369.06;1627235;86;21867;-70
2022/05/30 02:39:20;;;;;;;4.33;3.83;;;;;;;15.11;70.35;100371.20;1632983;86;22725;-71
2022/05/30 02:42:06;;;;;;;5.80;4.53;;;;;;;15.11;70.43;100361.78;1604984;88;21281;-71
2022/05/30 02:44:34;;;;;;;6.93;4.50;;;;;;;15.14;70.46;100363.89;1628857;86;21048;-72
2022/05/30 02:47:02;;;;;;;5.80;4.80;;;;;;;15.15;70.51;100362.79;1611942;88;21363;-72
2022/05/30 02:49:29;;;;;;;5.90;4.77;;;;;;;15.17;70.63;100361.17;1629214;86;21440;-71
2022/05/30 02:51:57;;;;;;;7.20;4.90;;;;;;;15.18;70.79;100374.31;1618287;86;21291;-71
2022/05/30 02:54:25;;;;;;;5.20;4.43;;;;;;;15.22;70.83;100381.25;1631834;86;21312;-71
2022/05/30 02:57:00;;;;;;;5.90;5.07;;;;;;;15.29;70.88;100382.23;1621216;86;21052;-77
2022/05/30 02:59:27;;;;;;;6.93;5.57;;;;;;;15.34;71.05;100374.09;1630864;86;21392;-72
2022/05/30 03:01:55;;;;;;;5.73;4.53;;;;;;;15.39;70.98;100376.14;1604808;88;21381;-72
2022/05/30 03:04:24;;;;;;;5.70;5.10;;;;;;;15.46;71.01;100379.80;1628697;86;21439;-70
2022/05/30 03:06:51;;;;;;;6.27;5.10;;;;;;;15.50;71.00;100379.48;1610852;87;21250;-72
2022/05/30 03:09:20;;;;;;;5.77;5.10;;;;;;;15.56;70.92;100386.36;1629876;86;21500;-71
2022/05/30 03:11:49;;;;;;;5.87;5.00;;;;;;;15.62;70.87;100389.78;1623542;87;21302;-72
2022/05/30 03:14:17;;;;;;;7.33;5.33;;;;;;;15.66;70.75;100394.33;1628911;86;21388;-72
2022/05/30 03:16:44;;;;;;;5.70;4.77;;;;;;;15.70;70.65;100393.19;1597316;86;21825;-72
2022/05/30 03:19:11;;;;;;;7.17;5.23;;;;;;;15.75;70.53;100393.64;1609202;88;21363;-71
2022/05/30 03:21:39;;;;;;;7.63;5.90;;;;;;;15.76;70.49;100397.92;1629610;86;21626;-72
2022/05/30 03:24:08;;;;;;;5.37;4.10;;;;;;;15.75;70.41;100396.34;1607734;88;21268;-71
2022/05/30 03:26:37;;;;;;;6.33;5.47;;;;;;;15.78;70.33;100395.75;1628908;86;21323;-71
2022/05/30 03:29:04;;;;;;;8.57;5.83;;;;;;;15.81;70.27;100405.93;1618457;87;21126;-71
2022/05/30 03:31:31;;;;;;;5.90;5.00;;;;;;;15.83;70.19;100401.06;1617850;87;21398;-71
2022/05/30 03:33:58;;;;;;;7.40;5.60;;;;;;;15.81;70.21;100401.89;1631135;85;21309;-72
2022/05/30 03:36:26;;;;;;;7.47;5.70;;;;;;;15.81;70.29;100408.62;1630942;85;21276;-72
2022/05/30 03:38:56;;;;;;;8.00;6.00;;;;;;;15.82;70.32;100415.59;1629907;86;21426;-72
2022/05/30 03:41:31;;;;;;;6.77;6.00;;;;;;;15.87;70.38;100408.80;1582334;87;21400;-72
2022/05/30 03:44:07;;;;;;;9.03;5.80;;;;;;;15.93;70.62;100402.23;1634341;86;21336;-71
2022/05/30 03:46:34;;;;;;;7.90;6.03;;;;;;;15.93;71.12;100386.86;1637128;85;21298;-72
2022/05/30 03:49:03;;;;;;;6.60;5.50;;;;;;;15.90;71.57;100386.11;1640180;86;21333;-72
2022/05/30 03:51:30;;;;;;;7.13;5.70;;;;;;;15.92;71.85;100398.70;1635646;86;21271;-71
2022/05/30 03:53:57;;;;;;;7.77;6.03;;;;;;;15.96;72.06;100390.86;1607177;88;21436;-71
2022/05/30 03:56:24;;;;;;;6.17;5.43;;;;;;;16.04;72.26;100384.77;1629015;86;21574;-71
2022/05/30 03:58:51;;;;;;;7.00;6.10;;;;;;;16.12;72.53;100376.54;1627631;86;21431;-72
2022/05/30 04:01:18;;;;;;;7.17;6.30;;;;;;;16.17;72.62;100374.56;1629201;86;21414;-72
2022/05/30 04:03:46;;;;;;;6.80;5.33;;;;;;;16.22;72.75;100366.91;1609983;88;21246;-71
2022/05/30 04:06:14;;;;;;;6.70;6.00;;;;;;;16.29;72.88;100357.11;1628386;86;21893;-71
2022/05/30 04:08:42;;;;;;;5.27;4.77;;;;;;;16.34;72.96;100347.01;1631301;85;21988;-71
2022/05/30 04:11:26;;;;;;;6.43;5.47;;;;;;;16.38;73.02;100345.30;1500762;93;21505;-71
2022/05/30 04:14:01;;;;;;;6.23;5.37;;;;;;;16.44;72.92;100343.30;1576905;88;21363;-71
2022/05/30 04:16:29;;;;;;;8.50;6.23;;;;;;;16.51;72.97;100345.59;1605428;87;21426;-71
2022/05/30 04:19:01;;;;;;;8.97;6.67;;;;;;;16.60;73.11;100349.98;1612671;87;21952;-71
2022/05/30 04:21:29;;;;;;;6.90;6.20;;;;;;;16.77;72.58;100353.42;1614169;86;21348;-71
2022/05/30 04:23:57;;;;;;;9.17;6.47;;;;;;;16.77;72.58;100353.42;1629911;86;21862;-72
2022/05/30 04:26:24;;;;;;;6.07;5.47;;;;;;;16.99;72.89;100345.92;1610665;87;21556;-72
2022/05/30 04:28:53;;;;;;;6.03;5.43;;;;;;;17.11;72.79;100348.09;1636843;85;21484;-71
2022/05/30 04:31:41;;;;;;;6.43;5.43;;;;;;;17.11;72.79;100348.09;1617396;87;21583;-71
2022/05/30 04:34:09;;;;;;;7.20;5.72;;;;;;;17.18;72.19;100352.52;1610175;88;21570;-70
2022/05/30 04:36:36;;;;;;;6.80;5.63;;;;;;;17.18;70.95;100344.42;1613192;87;21132;-71
2022/05/30 04:39:03;;;;;;;7.40;4.63;;;;;;;17.18;70.95;100344.42;1630366;86;21600;-69
2022/05/30 04:41:36;;;;;;;7.73;6.00;;;;;;;17.14;70.87;100339.36;1627917;86;21780;-71
2022/05/30 04:44:22;;;;;;;6.17;4.70;;;;;;;17.08;70.79;100350.84;1610246;88;22339;-70
2022/05/30 04:46:53;;;;;;;5.23;4.67;;;;;;;17.03;70.74;100359.61;1559178;86;21777;-71
2022/05/30 04:49:21;;;;;;;5.50;4.13;;;;;;;17.03;70.74;100359.61;1601376;86;21718;-71
2022/05/30 04:51:49;;;;;;;5.03;4.23;;;;;;;16.98;70.79;100378.06;1600025;87;21810;-70
2022/05/30 04:54:17;;;;;;;6.90;4.47;;;;;;;16.94;70.80;100381.10;1629544;86;21540;-72
2022/05/30 04:56:49;;;;;;;5.83;4.37;;;;;;;16.91;70.59;100390.36;1622315;86;21556;-72
2022/05/30 04:59:18;;;;;;;5.57;4.57;;;;;;;16.85;70.81;100396.44;1626817;86;21545;-72
2022/05/30 05:01:46;;;;;;;5.20;4.50;;;;;;;16.83;70.37;100406.16;1632272;86;21546;-72
2022/05/30 05:04:14;;;;;;;5.60;4.90;;;;;;;16.83;70.37;100406.16;1611628;87;21653;-72
2022/05/30 05:06:43;;;;;;;5.43;3.83;;;;;;;16.82;70.66;100417.27;1604522;88;22043;-72
2022/05/30 05:09:24;;;;;;;4.87;4.13;;;;;;;16.83;70.84;100430.44;1594252;88;21497;-72
2022/05/30 05:12:11;;;;;;;6.57;3.87;;;;;;;16.81;71.14;100455.58;1630356;86;21794;-72
2022/05/30 05:14:58;;;;;;;5.90;3.90;;;;;;;16.81;71.14;100455.58;1617715;86;22112;-72
2022/05/30 05:17:44;;;;;;;4.60;3.50;;;;;;;16.83;71.26;100469.55;1627187;86;21521;-71
2022/05/30 05:20:12;;;;;;;5.63;3.13;;;;;;;16.83;71.01;100464.16;1630409;85;21998;-72
2022/05/30 05:22:40;;;;;;;3.93;3.30;;;;;;;16.83;71.01;100464.16;1627807;85;21569;-72
2022/05/30 05:25:09;;;;;;;4.20;3.13;;;;;;;16.80;71.38;100468.00;1621346;86;21598;-70
2022/05/30 05:27:38;;;;;;;4.03;3.17;;;;;;;16.85;71.35;100466.02;1619292;86;21651;-71
2022/05/30 05:30:08;;;;;;;3.87;3.17;;;;;;;16.85;71.66;100470.06;1609198;88;21627;-71
2022/05/30 05:32:35;;;;;;;4.50;2.57;;;;;;;16.86;71.79;100460.06;1628083;86;21626;-72
2022/05/30 05:35:04;;;;;;;4.43;3.33;;;;;;;16.88;71.97;100451.13;1610832;88;21975;-72
2022/05/30 05:37:34;;;;;;;4.63;3.07;;;;;;;16.88;72.54;100435.73;1628651;86;21923;-72
2022/05/30 05:40:15;;;;;;;3.90;2.77;;;;;;;16.88;72.54;100435.73;1555086;88;21548;-71
2022/05/30 05:42:42;;;;;;;3.10;2.50;;;;;;;16.81;72.28;100421.86;1629827;86;21547;-71
2022/05/30 05:45:11;;;;;;;3.93;2.40;;;;;;;16.78;72.11;100424.34;1626360;86;21680;-73
2022/05/30 05:47:41;;;;;;;3.80;2.80;;;;;;;16.78;72.11;100424.34;1632383;86;21743;-72
2022/05/30 05:50:10;;;;;;;5.30;2.70;;;;;;;16.79;72.14;100440.80;1641555;85;22050;-71
2022/05/30 05:52:38;;;;;;;2.90;2.40;;;;;;;16.78;72.14;100438.66;1636570;86;22390;-72
2022/05/30 05:55:08;;;;;;;4.40;2.80;;;;;;;16.73;72.19;100423.87;1629016;86;21617;-71
2022/05/30 05:57:37;;;;;;;4.17;2.90;;;;;;;16.69;72.56;100434.23;1639434;86;21504;-70
2022/05/30 06:00:07;;;;;;;3.90;2.60;;;;;;;16.69;72.56;100434.23;1628762;86;21734;-71
2022/05/30 06:02:39;;;;;;;4.80;2.50;;;;;;;16.67;72.70;100439.91;1605021;87;22244;-71
2022/05/30 06:05:08;;;;;;;3.70;2.53;;;;;;;16.67;72.88;100443.16;1634426;85;21124;-71
2022/05/30 06:07:59;;;;;;;4.33;2.97;;;;;;;16.67;72.88;100443.16;1627212;86;21508;-71
2022/05/30 06:11:04;;;;;;;4.90;3.03;;;;;;;16.57;73.30;100431.47;1627748;85;21531;-70
2022/05/30 06:13:04;;;;;;;3.77;2.53;;;;;;;16.57;73.30;100431.47;1621656;86;21979;-71
2022/05/30 06:15:32;;;;;;;4.37;2.90;;;;;;;16.56;73.10;100466.84;1629385;86;21705;-71
2022/05/30 06:18:01;;;;;;;4.53;2.90;;;;;;;16.60;73.19;100461.88;1606815;86;21589;-73
2022/05/30 06:20:28;;;;;;;3.80;2.37;;;;;;;16.60;73.19;100461.88;1629083;86;21523;-71
2022/05/30 06:22:55;;;;;;;5.43;2.90;;;;;;;16.62;73.42;100448.91;1632635;86;21472;-71
2022/05/30 06:25:37;;;;;;;4.42;2.90;;;;;;;16.58;73.58;100445.22;1558558;87;21450;-71
2022/05/30 06:28:22;;;;;;;4.97;3.03;;;;;;;16.51;73.76;100444.80;1603572;88;21098;-71
2022/05/30 06:30:51;;;;;;;5.20;3.43;;;;;;;16.46;74.12;100434.13;1627004;86;21514;-70
2022/05/30 06:33:18;;;;;;;3.97;2.80;;;;;;;16.38;74.50;100424.02;1640609;85;21521;-70
2022/05/30 06:35:46;;;;;;;3.90;2.53;;;;;;;16.31;74.90;100416.89;1623891;86;21607;-71
2022/05/30 06:38:16;;;;;;;3.23;2.33;;;;;;;16.26;75.31;100414.30;1626845;86;21565;-71
2022/05/30 06:40:45;;;;;;;4.53;2.57;;;;;;;16.22;75.51;100403.84;1628171;86;21541;-70
2022/05/30 06:43:20;;;;;;;3.57;2.70;;;;;;;16.18;75.78;100396.36;1632403;86;21596;-70
2022/05/30 06:45:54;;;;;;;3.87;2.63;;;;;;;16.15;76.64;100388.07;1603382;86;21632;-69
2022/05/30 06:48:41;;;;;;;4.20;3.10;;;;;;;16.18;76.43;100384.78;1627247;86;22137;-69
2022/05/30 06:51:15;;;;;;;;;;;;;;;16.18;76.43;100384.78;1625044;86;21615;-69
2022/05/30 06:53:45;;;;;;;4.23;2.90;;;;;;;16.20;77.12;100375.86;1626067;86;20238;-69
2022/05/30 06:56:25;;;;;;;4.77;2.90;;;;;;;16.21;77.27;100369.37;1626616;86;22002;-69
2022/05/30 06:58:52;;;;;;;4.87;3.10;;;;;;;16.28;77.27;100367.62;1629022;85;21396;-69
2022/05/30 07:01:26;;;;;;;3.37;2.70;;;;;;;16.27;77.59;100340.43;1626802;86;21529;-69
2022/05/30 07:04:13;;;;;;;3.60;2.63;;;;;;;16.17;77.20;100327.41;1544333;89;22028;-69
2022/05/30 07:06:58;;;;;;;4.70;3.20;;;;;;;16.17;77.20;100327.41;1548625;91;21569;-69
2022/05/30 07:09:31;;;;;;;3.43;2.90;;;;;;;16.13;77.47;100303.51;1582144;86;21472;-69
2022/05/30 07:12:16;;;;;;;4.00;3.20;;;;;;;16.13;77.47;100303.51;1631157;86;22089;-68
2022/05/30 07:14:45;;;;;;;4.57;3.10;;;;;;;16.14;77.67;100316.42;1626367;86;21510;-69
2022/05/30 07:17:12;;;;;;;7.77;3.53;;;;;;;16.12;77.90;100313.22;1627697;86;21591;-68
2022/05/30 07:19:39;;;;;;;5.17;3.37;;;;;;;16.09;77.98;100307.91;1609315;88;21509;-69
2022/05/30 07:22:07;;;;;;;4.60;3.70;;;;;;;16.09;78.06;100301.70;1629951;86;21629;-69
2022/05/30 07:24:54;;;;;;;5.33;3.73;;;;;;;16.17;78.16;100297.77;1595419;88;21488;-70
2022/05/30 07:27:25;;;;;;;;;;;;;;;16.17;78.16;100297.77;1628218;86;21672;-68
2022/05/30 07:30:02;;;;;;;5.33;3.77;;;;;;;16.23;78.00;100296.32;1590470;87;21199;-71
2022/05/30 07:32:49;;;;;;;4.67;3.80;;;;;;;16.27;77.37;100277.09;1630180;86;21638;-70
2022/05/30 07:35:34;;;;;;;4.63;3.37;;;;;;;16.27;77.37;100277.09;1611747;88;22080;-70
2022/05/30 07:38:21;;;;;;;6.40;3.60;;;;;;;16.31;77.59;100263.26;1629702;86;21438;-70
2022/05/30 07:41:08;;;;;;;4.93;4.00;;;;;;;16.31;77.59;100263.26;1483920;94;21595;-71
2022/05/30 07:43:45;;;;;;;4.63;3.40;;;;;;;16.40;77.69;100262.80;1512296;93;21688;-71
2022/05/30 07:46:15;;;;;;;4.50;3.90;;;;;;;16.53;77.69;100256.58;1523209;88;22261;-69
2022/05/30 07:49:00;;;;;;;4.90;4.20;;;;;;;16.85;76.98;100266.95;1629374;86;21791;-69
2022/05/30 07:51:35;;;;;;;5.37;3.60;;;;;;;16.85;76.98;100266.95;1625753;86;22172;-70
2022/05/30 07:54:13;;;;;;;4.80;3.63;;;;;;;17.07;77.22;100266.93;1630199;86;21808;-70
2022/05/30 07:56:45;;;;;;;7.23;4.13;;;;;;;17.26;76.31;100264.59;1629074;86;21784;-70
2022/05/30 07:59:14;;;;;;;7.07;4.40;;;;;;;17.43;75.59;100258.49;1629871;86;21060;-70
2022/05/30 08:01:42;;;;;;;4.67;3.40;;;;;;;17.52;75.42;100262.84;1631043;86;21628;-69
2022/05/30 08:04:13;;;;;;;7.30;4.30;;;;;;;17.64;75.07;100274.42;1632122;85;22415;-69
2022/05/30 08:06:47;;;;;;;5.73;3.97;;;;;;;17.71;74.47;100280.72;1635345;85;22495;-71
2022/05/30 08:09:21;;;;;;;5.50;4.00;;;;;;;17.72;73.68;100275.00;1604214;87;21839;-70
2022/05/30 08:11:58;;;;;;;6.37;4.70;;;;;;;17.69;73.04;100288.33;1612762;86;21184;-71
2022/05/30 08:14:45;;;;;;;6.23;4.60;;;;;;;17.62;72.60;100296.88;1633546;85;21828;-71
2022/05/30 08:17:12;;;;;;;6.63;4.33;;;;;;;17.63;72.36;100296.32;1633515;86;21780;-71
2022/05/30 08:19:40;;;;;;;6.10;4.43;;;;;;;17.61;72.08;100308.00;1631421;86;21899;-71
2022/05/30 08:22:11;;;;;;;5.37;4.03;;;;;;;17.61;72.00;100309.36;1630091;86;21804;-70
2022/05/30 08:24:42;;;;;;;6.65;4.92;;;;;;;17.66;71.89;100298.41;1608851;86;27212;-70
2022/05/30 08:27:14;;;;;;;6.00;4.33;;;;;;;17.67;71.96;100299.98;1620653;86;21045;-71
2022/05/30 08:29:46;;;;;;;6.03;4.53;;;;;;;17.68;72.20;100300.25;1625896;85;21809;-71
2022/05/30 08:32:13;;;;;;;5.83;4.80;;;;;;;17.74;72.34;100312.52;1631762;86;21702;-72
2022/05/30 08:34:51;;;;;;;6.30;4.30;;;;;;;17.79;72.38;100342.91;1555531;90;21801;-71
2022/05/30 08:37:18;;;;;;;5.90;4.70;;;;;;;17.85;72.24;100358.44;1614905;87;21072;-70
2022/05/30 08:42:33;;;;;;;7.67;5.03;;;;;;;18.02;71.62;100369.32;1624595;86;21085;-70
2022/05/30 08:45:09;;;;;;;8.03;5.40;;;;;;;18.04;71.16;100346.84;1608448;86;21140;-69
2022/05/30 08:47:54;;;;;;;9.23;5.37;;;;;;;18.04;71.16;100346.84;1598851;88;21025;-70
2022/05/30 08:50:36;;;;;;;6.63;4.63;;;;;;;17.94;71.15;100334.97;1636222;87;21043;-70
2022/05/30 08:53:44;;;;;;;7.87;5.47;;;;;;;17.81;71.18;100332.59;1637602;87;21815;-70
2022/05/30 08:56:34;;;;;;;8.80;5.07;;;;;;;17.69;71.54;100336.95;1616283;86;21765;-71
2022/05/30 08:59:49;;;;;;;6.80;4.90;;;;;;;17.61;72.11;100337.72;1626929;86;21769;-70
2022/05/30 09:02:32;;;;;;;7.10;4.67;;;;;;;17.65;72.78;100335.98;1622186;85;21858;-71
2022/05/30 09:05:13;;;;;;;7.03;4.80;;;;;;;17.73;73.50;100349.52;1614325;86;21108;-69
2022/05/30 09:07:54;;;;;;;6.87;4.80;;;;;;;17.81;73.92;100333.95;1625959;85;21895;-70
2022/05/30 09:10:34;;;;;;;7.25;5.03;;;;;;;17.87;74.19;100320.29;1564217;86;21096;-70
2022/05/30 09:13:08;;;;;;;8.33;5.23;;;;;;;17.79;74.44;100318.59;1599334;86;21570;-69
2022/05/30 09:16:03;;;;;;;6.47;4.63;;;;;;;17.79;74.44;100318.59;1628182;86;21249;-71
2022/05/30 09:18:52;;;;;;;6.67;5.57;;;;;;;17.75;74.39;100321.65;1613365;85;21080;-70
2022/05/30 09:21:20;;;;;;;6.90;5.30;;;;;;;17.72;74.64;100324.97;1635628;86;21053;-70
2022/05/30 09:23:48;;;;;;;7.53;4.80;;;;;;;17.72;74.64;100324.97;1632061;85;21120;-69
2022/05/30 09:26:21;;;;;;;6.63;5.47;;;;;;;17.75;74.71;100324.91;1634251;86;21074;-70
2022/05/30 09:29:31;;;;;;;7.53;5.10;;;;;;;17.84;74.91;100321.73;1627213;86;21355;-70
2022/05/30 09:32:57;;;;;;;7.60;5.40;;;;;;;17.98;75.15;100314.31;1570807;89;21153;-70
2022/05/30 09:35:41;;;;;;;7.03;5.20;;;;;;;18.18;75.25;100317.56;1502178;94;21154;-70
2022/05/30 09:38:29;;;;;;;6.90;5.63;;;;;;;18.43;75.23;100305.22;1585967;88;21179;-70
2022/05/30 09:41:23;;;;;;;5.53;4.60;;;;;;;18.66;75.06;100305.89;1603964;87;21105;-71
2022/05/30 09:44:03;;;;;;;9.17;5.50;;;;;;;18.81;74.55;100302.73;1616522;86;21842;-70
2022/05/30 09:46:38;;;;;;;7.43;5.80;;;;;;;18.91;74.09;100300.27;1630234;86;21082;-71
2022/05/30 09:49:21;;;;;;;8.80;5.67;;;;;;;19.00;73.57;100294.30;1609801;88;21101;-70
2022/05/30 09:52:00;;;;;;;6.87;5.43;;;;;;;19.06;73.11;100290.88;1629995;86;21690;-70
2022/05/30 09:54:34;;;;;;;6.47;5.10;;;;;;;19.10;72.93;100288.55;1607348;89;21015;-70
2022/05/30 09:57:41;;;;;;;7.03;5.80;;;;;;;19.10;72.78;100291.25;1627337;86;21236;-70
2022/05/30 10:00:15;;;;;;;6.30;4.80;;;;;;;19.05;72.18;100296.03;1620933;87;21057;-71
2022/05/30 10:02:45;;;;;;;8.43;5.55;;;;;;;18.95;71.91;100297.97;1626988;86;21034;-70
2022/05/30 10:05:22;;;;;;;7.40;5.20;;;;;;;18.89;71.96;100288.42;1627229;86;21211;-69
2022/05/30 10:07:57;;;;;;;6.23;5.37;;;;;;;18.87;72.15;100287.93;1627214;86;21037;-70
2022/05/30 10:10:34;;;;;;;8.47;6.13;;;;;;;18.89;72.75;100277.59;1626875;86;21025;-70
2022/05/30 10:13:05;;;;;;;8.18;5.80;;;;;;;18.89;72.75;100277.59;1617012;86;21752;-71
2022/05/30 10:15:40;;;;;;;8.30;5.67;;;;;;;18.95;72.73;100280.38;1610040;86;20973;-70
2022/05/30 10:18:19;;;;;;;7.53;5.33;;;;;;;19.02;72.54;100277.72;1627158;86;21064;-71
2022/05/30 10:21:04;;;;;;;7.57;5.53;;;;;;;19.07;72.25;100284.34;1626298;86;21116;-72
2022/05/30 10:31:02;;;;;;;7.13;5.67;;;;;;;19.29;71.90;100263.05;1626453;86;21034;-70
2022/05/30 10:34:18;;;;;;;9.47;6.17;;;;;;;19.25;71.35;100257.48;1556173;86;21211;-70
2022/05/30 10:37:36;;;;;;;6.93;5.47;;;;;;;19.22;71.11;100248.65;1628603;86;20974;-71
2022/05/30 10:40:27;;;;;;;7.47;6.20;;;;;;;19.27;70.99;100253.08;1634615;86;21118;-70
2022/05/30 10:43:16;;;;;;;7.43;6.30;;;;;;;19.32;71.01;100246.95;1621160;86;21035;-71
2022/05/30 10:46:04;;;;;;;7.63;5.87;;;;;;;19.36;70.73;100246.53;1607286;87;20994;-70
2022/05/30 10:48:40;;;;;;;8.13;6.10;;;;;;;19.38;70.63;100236.18;1589369;88;21030;-71
2022/05/30 10:51:14;;;;;;;8.27;6.30;;;;;;;19.42;70.57;100230.34;1627342;86;21084;-70
2022/05/30 10:53:57;;;;;;;7.27;6.30;;;;;;;19.51;70.46;100234.92;1627262;85;21840;-70
2022/05/30 10:56:50;;;;;;;8.70;6.03;;;;;;;19.51;70.10;100234.92;1625472;86;21065;-70
2022/05/30 10:59:38;;;;;;;9.43;6.60;;;;;;;19.53;70.05;100232.69;1601535;86;21053;-70
2022/05/30 11:02:29;;;;;;;8.17;5.90;;;;;;;19.51;69.89;100234.35;1631890;85;20995;-70
2022/05/30 11:05:15;;;;;;;9.93;6.63;;;;;;;19.52;69.95;100231.91;1556478;90;21509;-73
2022/05/30 11:08:26;;;;;;;8.37;5.77;;;;;;;19.53;69.95;100232.69;1627748;86;21058;-71
2022/05/30 11:10:58;;;;;;;10.07;6.77;;;;;;;19.59;69.90;100229.48;1627484;86;21077;-70
2022/05/30 11:13:48;;;;;;;10.25;6.90;;;;;;;19.72;69.92;100233.13;1603791;87;21105;-71
2022/05/30 11:16:41;;;;;;;7.10;6.27;;;;;;;19.84;69.74;100215.61;1568124;88;21054;-70
2022/05/30 11:19:51;;;;;;;9.70;6.90;;;;;;;20.02;69.80;100216.30;1626775;86;21053;-69
2022/05/30 11:22:37;;;;;;;8.40;6.23;;;;;;;20.09;69.19;100218.48;1627037;86;21195;-71
2022/05/30 11:25:07;;;;;;;7.50;6.00;;;;;;;20.18;68.74;100217.87;1627165;86;21628;-71
2022/05/30 11:27:59;;;;;;;9.18;6.72;;;;;;;20.29;68.12;100213.63;1614919;86;21017;-71
2022/05/30 11:30:44;;;;;;;7.70;5.75;;;;;;;20.35;67.90;100209.59;1627359;86;21066;-71
2022/05/30 11:33:44;;;;;;;9.07;6.83;;;;;;;20.49;67.88;100211.25;1627091;86;21076;-70
2022/05/30 11:36:17;;;;;;;8.57;6.53;;;;;;;20.58;66.84;100210.65;1626759;86;21048;-71
2022/05/30 11:39:24;;;;;;;9.10;6.80;;;;;;;20.71;66.47;100206.86;1627989;86;21421;-72
2022/05/30 11:42:26;;;;;;;8.13;6.37;;;;;;;20.84;66.28;100213.92;1627045;86;21643;-72
2022/05/30 11:45:13;;;;;;;9.27;6.47;;;;;;;21.01;65.68;100202.09;1626819;86;21124;-69
2022/05/30 11:47:51;;;;;;;7.13;5.73;;;;;;;21.12;64.72;100204.38;1627437;86;20994;-70
2022/05/30 11:50:39;;;;;;;7.70;5.80;;;;;;;21.21;64.30;100195.57;1626946;86;21779;-70
2022/05/30 11:53:26;;;;;;;8.27;6.67;;;;;;;21.34;64.30;100203.17;1624546;86;21060;-72
2022/05/30 11:56:12;;;;;;;8.67;6.23;;;;;;;21.52;63.23;100212.74;1626355;85;21070;-71
2022/05/30 11:59:25;;;;;;;10.03;6.60;;;;;;;21.65;62.88;100211.61;1626810;86;21583;-71
2022/05/30 12:01:55;;;;;;;8.58;6.10;;;;;;;21.84;62.50;100211.02;1626989;86;21084;-71
2022/05/30 12:04:30;;;;;;;8.37;6.33;;;;;;;22.05;62.05;100216.34;1627143;85;21116;-71
2022/05/30 12:07:30;;;;;;;8.10;5.90;;;;;;;22.18;61.45;100212.49;1625200;86;21068;-71
2022/05/30 12:10:37;;;;;;;8.80;6.10;;;;;;;22.28;60.78;100212.58;1618690;86;21541;-71
2022/05/30 12:13:15;;;;;;;7.63;5.73;;;;;;;22.43;60.33;100209.69;1619897;87;20998;-71
2022/05/30 12:16:08;;;;;;;7.53;6.37;;;;;;;22.61;59.77;100213.72;1617969;86;21017;-71
2022/05/30 12:24:32;;;;;;;8.77;5.70;;;;;;;23.06;57.09;100214.55;1629202;86;21116;-71
2022/05/30 12:27:14;;;;;;;7.87;5.93;;;;;;;22.94;56.97;100213.48;1606158;88;21684;-71
2022/05/30 12:29:46;;;;;;;9.07;5.90;;;;;;;22.97;57.06;100218.81;1622392;86;21253;-71
2022/05/30 12:32:19;;;;;;;;;;;;;;;23.04;56.65;100219.00;1630027;86;21188;-73